sensor_id;sensor_type;location;lat;lon;timestamp;temperature;humidity
8332;DHT22;4203;48.144;14.118;2022-08-03T00:01:07;16.60;99.90
8332;DHT22;4203;48.144;14.118;2022-08-03T00:03:34;16.60;99.90
8332;DHT22;4203;48.144;14.118;2022-08-03T00:06:01;16.50;99.90
8332;DHT22;4203;48.144;14.118;2022-08-03T00:08:30;16.50;99.90
8332;DHT22;4203;48.144;14.118;2022-08-03T00:10:57;16.40;99.90
8332;DHT22;4203;48.144;14.118;2022-08-03T00:13:24;16.40;99.90
8332;DHT22;4203;48.144;14.118;2022-08-03T00:15:51;16.40;99.90
8332;DHT22;4203;48.144;14.118;2022-08-03T00:18:19;16.40;99.90
8332;DHT22;4203;48.144;14.118;2022-08-03T00:20:46;16.40;99.90
8332;DHT22;4203;48.144;14.118;2022-08-03T00:23:14;16.40;99.90
8332;DHT22;4203;48.144;14.118;2022-08-03T00:25:42;16.50;99.90
8332;DHT22;4203;48.144;14.118;2022-08-03T00:28:10;16.40;99.90
8332;DHT22;4203;48.144;14.118;2022-08-03T00:30:37;16.40;99.90
8332;DHT22;4203;48.144;14.118;2022-08-03T00:33:04;16.30;99.90
8332;DHT22;4203;48.144;14.118;2022-08-03T00:35:31;16.30;99.90
8332;DHT22;4203;48.144;14.118;2022-08-03T00:37:59;16.20;99.90
8332;DHT22;4203;48.144;14.118;2022-08-03T00:40:26;16.20;99.90
8332;DHT22;4203;48.144;14.118;2022-08-03T00:42:55;16.20;99.90
8332;DHT22;4203;48.144;14.118;2022-08-03T00:45:25;16.10;99.90
8332;DHT22;4203;48.144;14.118;2022-08-03T00:47:53;16.10;99.90
8332;DHT22;4203;48.144;14.118;2022-08-03T00:50:21;16.00;99.90
8332;DHT22;4203;48.144;14.118;2022-08-03T00:52:49;16.10;99.90
8332;DHT22;4203;48.144;14.118;2022-08-03T00:55:17;16.10;99.90
8332;DHT22;4203;48.144;14.118;2022-08-03T00:57:45;16.00;99.90
8332;DHT22;4203;48.144;14.118;2022-08-03T01:00:16;16.00;99.90
8332;DHT22;4203;48.144;14.118;2022-08-03T01:02:44;16.00;99.90
8332;DHT22;4203;48.144;14.118;2022-08-03T01:05:12;16.00;99.90
8332;DHT22;4203;48.144;14.118;2022-08-03T01:07:54;16.00;99.90
8332;DHT22;4203;48.144;14.118;2022-08-03T01:10:31;15.90;99.90
8332;DHT22;4203;48.144;14.118;2022-08-03T01:13:03;15.90;99.90
8332;DHT22;4203;48.144;14.118;2022-08-03T01:15:38;15.90;99.90
8332;DHT22;4203;48.144;14.118;2022-08-03T01:18:10;15.90;99.90
8332;DHT22;4203;48.144;14.118;2022-08-03T01:20:42;15.80;99.90
8332;DHT22;4203;48.144;14.118;2022-08-03T01:23:34;15.80;99.90
8332;DHT22;4203;48.144;14.118;2022-08-03T01:26:12;15.80;99.90
8332;DHT22;4203;48.144;14.118;2022-08-03T01:28:55;15.70;99.90
8332;DHT22;4203;48.144;14.118;2022-08-03T01:31:28;15.70;99.90
8332;DHT22;4203;48.144;14.118;2022-08-03T01:34:00;15.70;99.90
8332;DHT22;4203;48.144;14.118;2022-08-03T01:36:32;15.70;99.90
8332;DHT22;4203;48.144;14.118;2022-08-03T01:39:02;15.70;99.90
8332;DHT22;4203;48.144;14.118;2022-08-03T01:41:36;15.70;99.90
8332;DHT22;4203;48.144;14.118;2022-08-03T01:44:08;15.70;99.90
8332;DHT22;4203;48.144;14.118;2022-08-03T01:46:38;15.70;99.90
8332;DHT22;4203;48.144;14.118;2022-08-03T01:49:07;15.60;99.90
8332;DHT22;4203;48.144;14.118;2022-08-03T01:51:37;15.50;99.90
8332;DHT22;4203;48.144;14.118;2022-08-03T01:54:06;15.50;99.90
8332;DHT22;4203;48.144;14.118;2022-08-03T01:56:34;15.40;99.90
8332;DHT22;4203;48.144;14.118;2022-08-03T01:59:03;15.40;99.90
8332;DHT22;4203;48.144;14.118;2022-08-03T02:01:32;15.40;99.90
8332;DHT22;4203;48.144;14.118;2022-08-03T02:04:03;15.40;99.90
8332;DHT22;4203;48.144;14.118;2022-08-03T02:06:33;15.40;99.90
8332;DHT22;4203;48.144;14.118;2022-08-03T02:09:02;15.40;99.90
8332;DHT22;4203;48.144;14.118;2022-08-03T02:11:30;15.30;99.90
8332;DHT22;4203;48.144;14.118;2022-08-03T02:14:00;15.30;99.90
8332;DHT22;4203;48.144;14.118;2022-08-03T02:16:30;15.30;99.90
8332;DHT22;4203;48.144;14.118;2022-08-03T02:18:59;15.20;99.90
8332;DHT22;4203;48.144;14.118;2022-08-03T02:21:30;15.20;99.90
8332;DHT22;4203;48.144;14.118;2022-08-03T02:23:59;15.20;99.90
8332;DHT22;4203;48.144;14.118;2022-08-03T02:26:28;15.20;99.90
8332;DHT22;4203;48.144;14.118;2022-08-03T02:28:59;15.10;99.90
8332;DHT22;4203;48.144;14.118;2022-08-03T02:31:31;15.10;99.90
8332;DHT22;4203;48.144;14.118;2022-08-03T02:34:03;15.10;99.90
8332;DHT22;4203;48.144;14.118;2022-08-03T02:36:37;15.10;99.90
8332;DHT22;4203;48.144;14.118;2022-08-03T02:39:06;15.10;99.90
8332;DHT22;4203;48.144;14.118;2022-08-03T02:41:44;15.10;99.90
8332;DHT22;4203;48.144;14.118;2022-08-03T02:44:12;15.00;99.90
8332;DHT22;4203;48.144;14.118;2022-08-03T02:46:43;15.10;99.90
8332;DHT22;4203;48.144;14.118;2022-08-03T02:49:12;15.10;99.90
8332;DHT22;4203;48.144;14.118;2022-08-03T02:51:43;15.00;99.90
8332;DHT22;4203;48.144;14.118;2022-08-03T02:54:11;14.90;99.90
8332;DHT22;4203;48.144;14.118;2022-08-03T02:56:40;14.90;99.90
8332;DHT22;4203;48.144;14.118;2022-08-03T02:59:09;14.90;99.90
8332;DHT22;4203;48.144;14.118;2022-08-03T03:01:37;14.90;99.90
8332;DHT22;4203;48.144;14.118;2022-08-03T03:04:05;14.80;99.90
8332;DHT22;4203;48.144;14.118;2022-08-03T03:06:34;14.80;99.90
8332;DHT22;4203;48.144;14.118;2022-08-03T03:09:03;14.80;99.90
8332;DHT22;4203;48.144;14.118;2022-08-03T03:11:30;14.80;99.90
8332;DHT22;4203;48.144;14.118;2022-08-03T03:13:59;14.70;99.90
8332;DHT22;4203;48.144;14.118;2022-08-03T03:16:28;14.70;99.90
8332;DHT22;4203;48.144;14.118;2022-08-03T03:18:56;14.60;99.90
8332;DHT22;4203;48.144;14.118;2022-08-03T03:21:25;14.60;99.90
8332;DHT22;4203;48.144;14.118;2022-08-03T03:23:53;14.60;99.90
8332;DHT22;4203;48.144;14.118;2022-08-03T03:26:22;14.60;99.90
8332;DHT22;4203;48.144;14.118;2022-08-03T03:28:49;14.60;99.90
8332;DHT22;4203;48.144;14.118;2022-08-03T03:31:17;14.60;99.90
8332;DHT22;4203;48.144;14.118;2022-08-03T03:33:44;14.60;99.90
8332;DHT22;4203;48.144;14.118;2022-08-03T03:36:11;14.50;99.90
8332;DHT22;4203;48.144;14.118;2022-08-03T03:38:38;14.50;99.90
8332;DHT22;4203;48.144;14.118;2022-08-03T03:41:06;14.40;99.90
8332;DHT22;4203;48.144;14.118;2022-08-03T03:43:34;14.40;99.90
8332;DHT22;4203;48.144;14.118;2022-08-03T03:46:02;14.40;99.90
8332;DHT22;4203;48.144;14.118;2022-08-03T03:48:29;14.50;99.90
8332;DHT22;4203;48.144;14.118;2022-08-03T03:50:56;14.50;99.90
8332;DHT22;4203;48.144;14.118;2022-08-03T03:53:24;14.40;99.90
8332;DHT22;4203;48.144;14.118;2022-08-03T03:55:52;14.40;99.90
8332;DHT22;4203;48.144;14.118;2022-08-03T03:58:19;14.40;99.90
8332;DHT22;4203;48.144;14.118;2022-08-03T04:00:48;14.50;99.90
8332;DHT22;4203;48.144;14.118;2022-08-03T04:03:15;14.50;99.90
8332;DHT22;4203;48.144;14.118;2022-08-03T04:05:43;14.40;99.90
8332;DHT22;4203;48.144;14.118;2022-08-03T04:08:27;14.40;99.90
8332;DHT22;4203;48.144;14.118;2022-08-03T04:11:17;14.40;99.90
8332;DHT22;4203;48.144;14.118;2022-08-03T04:13:49;14.50;99.90
8332;DHT22;4203;48.144;14.118;2022-08-03T04:16:21;14.50;99.90
8332;DHT22;4203;48.144;14.118;2022-08-03T04:18:51;14.50;99.90
8332;DHT22;4203;48.144;14.118;2022-08-03T04:21:21;14.60;99.90
8332;DHT22;4203;48.144;14.118;2022-08-03T04:23:52;14.70;99.90
8332;DHT22;4203;48.144;14.118;2022-08-03T04:26:21;14.70;99.90
8332;DHT22;4203;48.144;14.118;2022-08-03T04:28:50;14.70;99.90
8332;DHT22;4203;48.144;14.118;2022-08-03T04:31:22;14.80;99.90
8332;DHT22;4203;48.144;14.118;2022-08-03T04:33:51;15.00;99.90
8332;DHT22;4203;48.144;14.118;2022-08-03T04:36:21;15.10;99.90
8332;DHT22;4203;48.144;14.118;2022-08-03T04:38:57;15.20;99.90
8332;DHT22;4203;48.144;14.118;2022-08-03T04:41:27;15.40;99.90
8332;DHT22;4203;48.144;14.118;2022-08-03T04:43:56;15.60;99.90
8332;DHT22;4203;48.144;14.118;2022-08-03T04:46:29;15.60;99.90
8332;DHT22;4203;48.144;14.118;2022-08-03T04:48:57;15.80;99.90
8332;DHT22;4203;48.144;14.118;2022-08-03T04:51:25;15.90;99.90
8332;DHT22;4203;48.144;14.118;2022-08-03T04:53:52;16.10;99.90
8332;DHT22;4203;48.144;14.118;2022-08-03T04:56:20;16.20;99.90
8332;DHT22;4203;48.144;14.118;2022-08-03T04:58:47;16.30;99.90
8332;DHT22;4203;48.144;14.118;2022-08-03T05:01:15;16.50;99.90
8332;DHT22;4203;48.144;14.118;2022-08-03T05:03:43;16.60;99.90
8332;DHT22;4203;48.144;14.118;2022-08-03T05:06:10;16.80;99.90
8332;DHT22;4203;48.144;14.118;2022-08-03T05:08:38;16.90;99.90
8332;DHT22;4203;48.144;14.118;2022-08-03T05:11:05;17.00;99.90
8332;DHT22;4203;48.144;14.118;2022-08-03T05:13:32;17.10;99.90
8332;DHT22;4203;48.144;14.118;2022-08-03T05:15:59;17.20;99.90
8332;DHT22;4203;48.144;14.118;2022-08-03T05:18:26;17.30;99.90
8332;DHT22;4203;48.144;14.118;2022-08-03T05:20:55;17.50;99.90
8332;DHT22;4203;48.144;14.118;2022-08-03T05:23:22;17.60;99.90
8332;DHT22;4203;48.144;14.118;2022-08-03T05:25:49;17.70;99.90
8332;DHT22;4203;48.144;14.118;2022-08-03T05:28:16;17.90;99.90
8332;DHT22;4203;48.144;14.118;2022-08-03T05:30:43;18.10;99.90
8332;DHT22;4203;48.144;14.118;2022-08-03T05:33:11;18.30;99.90
8332;DHT22;4203;48.144;14.118;2022-08-03T05:35:38;18.50;99.90
8332;DHT22;4203;48.144;14.118;2022-08-03T05:38:07;18.70;99.90
8332;DHT22;4203;48.144;14.118;2022-08-03T05:40:34;18.90;99.90
8332;DHT22;4203;48.144;14.118;2022-08-03T05:43:02;19.00;99.90
8332;DHT22;4203;48.144;14.118;2022-08-03T05:45:29;19.10;99.90
8332;DHT22;4203;48.144;14.118;2022-08-03T05:47:56;19.30;99.90
8332;DHT22;4203;48.144;14.118;2022-08-03T05:50:23;19.60;99.90
8332;DHT22;4203;48.144;14.118;2022-08-03T05:52:53;19.70;99.90
8332;DHT22;4203;48.144;14.118;2022-08-03T05:55:23;19.80;99.90
8332;DHT22;4203;48.144;14.118;2022-08-03T05:57:51;19.90;99.90
8332;DHT22;4203;48.144;14.118;2022-08-03T06:00:18;20.00;99.90
8332;DHT22;4203;48.144;14.118;2022-08-03T06:02:45;20.10;99.90
8332;DHT22;4203;48.144;14.118;2022-08-03T06:05:12;20.00;99.90
8332;DHT22;4203;48.144;14.118;2022-08-03T06:07:39;20.10;99.90
8332;DHT22;4203;48.144;14.118;2022-08-03T06:10:07;20.30;99.90
8332;DHT22;4203;48.144;14.118;2022-08-03T06:12:36;20.50;99.90
8332;DHT22;4203;48.144;14.118;2022-08-03T06:15:06;20.70;99.90
8332;DHT22;4203;48.144;14.118;2022-08-03T06:17:42;20.80;99.90
8332;DHT22;4203;48.144;14.118;2022-08-03T06:20:10;20.90;99.90
8332;DHT22;4203;48.144;14.118;2022-08-03T06:22:38;21.20;99.90
8332;DHT22;4203;48.144;14.118;2022-08-03T06:25:05;21.50;99.90
8332;DHT22;4203;48.144;14.118;2022-08-03T06:27:33;21.70;99.90
8332;DHT22;4203;48.144;14.118;2022-08-03T06:30:03;21.90;99.90
8332;DHT22;4203;48.144;14.118;2022-08-03T06:32:30;22.00;99.90
8332;DHT22;4203;48.144;14.118;2022-08-03T06:34:58;22.30;99.90
8332;DHT22;4203;48.144;14.118;2022-08-03T06:37:25;22.50;99.90
8332;DHT22;4203;48.144;14.118;2022-08-03T06:39:53;22.80;99.90
8332;DHT22;4203;48.144;14.118;2022-08-03T06:42:20;23.10;99.90
8332;DHT22;4203;48.144;14.118;2022-08-03T06:44:47;23.30;99.90
8332;DHT22;4203;48.144;14.118;2022-08-03T06:47:17;23.60;99.90
8332;DHT22;4203;48.144;14.118;2022-08-03T06:49:44;23.80;99.90
8332;DHT22;4203;48.144;14.118;2022-08-03T06:52:11;23.90;99.90
8332;DHT22;4203;48.144;14.118;2022-08-03T06:54:38;24.10;99.90
8332;DHT22;4203;48.144;14.118;2022-08-03T06:57:05;24.20;99.90
8332;DHT22;4203;48.144;14.118;2022-08-03T06:59:36;24.40;99.90
8332;DHT22;4203;48.144;14.118;2022-08-03T07:02:03;24.70;99.90
8332;DHT22;4203;48.144;14.118;2022-08-03T07:04:33;24.80;99.90
8332;DHT22;4203;48.144;14.118;2022-08-03T07:07:00;25.10;99.90
8332;DHT22;4203;48.144;14.118;2022-08-03T07:09:28;25.30;99.90
8332;DHT22;4203;48.144;14.118;2022-08-03T07:11:55;25.40;99.90
8332;DHT22;4203;48.144;14.118;2022-08-03T07:14:23;25.60;99.90
8332;DHT22;4203;48.144;14.118;2022-08-03T07:16:50;25.70;99.90
8332;DHT22;4203;48.144;14.118;2022-08-03T07:19:17;25.80;99.90
8332;DHT22;4203;48.144;14.118;2022-08-03T07:21:46;25.90;99.90
8332;DHT22;4203;48.144;14.118;2022-08-03T07:24:13;26.00;99.90
8332;DHT22;4203;48.144;14.118;2022-08-03T07:26:40;26.10;99.90
8332;DHT22;4203;48.144;14.118;2022-08-03T07:29:07;26.30;99.90
8332;DHT22;4203;48.144;14.118;2022-08-03T07:31:34;26.50;99.90
8332;DHT22;4203;48.144;14.118;2022-08-03T07:34:01;26.60;99.90
8332;DHT22;4203;48.144;14.118;2022-08-03T07:36:29;26.70;99.90
8332;DHT22;4203;48.144;14.118;2022-08-03T07:38:58;26.80;99.90
8332;DHT22;4203;48.144;14.118;2022-08-03T07:41:25;26.90;99.90
8332;DHT22;4203;48.144;14.118;2022-08-03T07:43:52;27.00;99.90
8332;DHT22;4203;48.144;14.118;2022-08-03T07:46:20;27.20;99.90
8332;DHT22;4203;48.144;14.118;2022-08-03T07:48:47;27.40;99.90
8332;DHT22;4203;48.144;14.118;2022-08-03T07:51:14;27.60;99.90
8332;DHT22;4203;48.144;14.118;2022-08-03T07:53:41;27.70;99.90
8332;DHT22;4203;48.144;14.118;2022-08-03T07:56:10;27.90;99.90
8332;DHT22;4203;48.144;14.118;2022-08-03T07:58:37;28.10;99.90
8332;DHT22;4203;48.144;14.118;2022-08-03T08:01:05;28.30;99.90
8332;DHT22;4203;48.144;14.118;2022-08-03T08:03:32;28.30;99.90
8332;DHT22;4203;48.144;14.118;2022-08-03T08:05:59;28.50;99.90
8332;DHT22;4203;48.144;14.118;2022-08-03T08:08:26;28.70;99.90
8332;DHT22;4203;48.144;14.118;2022-08-03T08:10:53;28.80;99.90
8332;DHT22;4203;48.144;14.118;2022-08-03T08:13:22;28.90;99.90
8332;DHT22;4203;48.144;14.118;2022-08-03T08:15:49;28.90;99.90
8332;DHT22;4203;48.144;14.118;2022-08-03T08:18:17;28.90;99.90
8332;DHT22;4203;48.144;14.118;2022-08-03T08:20:44;28.90;99.90
8332;DHT22;4203;48.144;14.118;2022-08-03T08:23:11;28.80;99.90
8332;DHT22;4203;48.144;14.118;2022-08-03T08:25:39;28.40;99.90
8332;DHT22;4203;48.144;14.118;2022-08-03T08:28:06;28.40;99.90
8332;DHT22;4203;48.144;14.118;2022-08-03T08:30:35;28.70;99.90
8332;DHT22;4203;48.144;14.118;2022-08-03T08:33:02;28.90;99.90
8332;DHT22;4203;48.144;14.118;2022-08-03T08:35:30;29.10;99.90
8332;DHT22;4203;48.144;14.118;2022-08-03T08:37:59;29.50;99.90
8332;DHT22;4203;48.144;14.118;2022-08-03T08:40:27;29.70;99.90
8332;DHT22;4203;48.144;14.118;2022-08-03T08:42:54;29.80;99.90
8332;DHT22;4203;48.144;14.118;2022-08-03T08:45:21;29.80;99.90
8332;DHT22;4203;48.144;14.118;2022-08-03T08:47:51;29.80;99.90
8332;DHT22;4203;48.144;14.118;2022-08-03T08:50:21;30.00;99.90
8332;DHT22;4203;48.144;14.118;2022-08-03T08:52:49;29.90;99.90
8332;DHT22;4203;48.144;14.118;2022-08-03T08:55:20;30.10;99.90
8332;DHT22;4203;48.144;14.118;2022-08-03T08:57:49;30.20;99.90
8332;DHT22;4203;48.144;14.118;2022-08-03T09:00:18;30.30;99.90
8332;DHT22;4203;48.144;14.118;2022-08-03T09:02:45;30.20;99.90
8332;DHT22;4203;48.144;14.118;2022-08-03T09:05:15;30.40;99.90
8332;DHT22;4203;48.144;14.118;2022-08-03T09:07:44;30.40;99.90
8332;DHT22;4203;48.144;14.118;2022-08-03T09:10:13;30.50;99.90
8332;DHT22;4203;48.144;14.118;2022-08-03T09:12:43;30.70;99.90
8332;DHT22;4203;48.144;14.118;2022-08-03T09:15:22;30.90;99.90
8332;DHT22;4203;48.144;14.118;2022-08-03T09:17:51;31.10;99.90
8332;DHT22;4203;48.144;14.118;2022-08-03T09:20:20;31.40;99.90
8332;DHT22;4203;48.144;14.118;2022-08-03T09:22:53;31.40;99.90
8332;DHT22;4203;48.144;14.118;2022-08-03T09:25:26;31.60;99.90
8332;DHT22;4203;48.144;14.118;2022-08-03T09:27:54;31.80;99.90
8332;DHT22;4203;48.144;14.118;2022-08-03T09:30:29;31.70;99.90
8332;DHT22;4203;48.144;14.118;2022-08-03T09:32:59;31.80;99.90
8332;DHT22;4203;48.144;14.118;2022-08-03T09:35:28;31.90;99.90
8332;DHT22;4203;48.144;14.118;2022-08-03T09:38:09;32.20;99.90
8332;DHT22;4203;48.144;14.118;2022-08-03T09:40:37;32.20;99.90
8332;DHT22;4203;48.144;14.118;2022-08-03T09:43:05;32.40;99.90
8332;DHT22;4203;48.144;14.118;2022-08-03T09:45:33;32.50;99.90
8332;DHT22;4203;48.144;14.118;2022-08-03T09:48:22;32.60;99.90
8332;DHT22;4203;48.144;14.118;2022-08-03T09:50:52;32.70;99.90
8332;DHT22;4203;48.144;14.118;2022-08-03T09:53:20;32.90;99.90
8332;DHT22;4203;48.144;14.118;2022-08-03T09:55:54;33.00;99.90
8332;DHT22;4203;48.144;14.118;2022-08-03T09:58:23;33.00;99.90
8332;DHT22;4203;48.144;14.118;2022-08-03T10:00:56;33.20;99.90
8332;DHT22;4203;48.144;14.118;2022-08-03T10:03:24;33.10;99.90
8332;DHT22;4203;48.144;14.118;2022-08-03T10:05:54;33.20;99.90
8332;DHT22;4203;48.144;14.118;2022-08-03T10:08:22;33.30;99.90
8332;DHT22;4203;48.144;14.118;2022-08-03T10:10:50;33.40;99.90
8332;DHT22;4203;48.144;14.118;2022-08-03T10:13:20;33.50;99.90
8332;DHT22;4203;48.144;14.118;2022-08-03T10:15:48;33.50;99.90
8332;DHT22;4203;48.144;14.118;2022-08-03T10:18:15;33.50;99.90
8332;DHT22;4203;48.144;14.118;2022-08-03T10:20:45;33.70;99.90
8332;DHT22;4203;48.144;14.118;2022-08-03T10:23:17;33.80;99.90
8332;DHT22;4203;48.144;14.118;2022-08-03T10:25:47;33.90;99.90
8332;DHT22;4203;48.144;14.118;2022-08-03T10:28:17;33.80;99.90
8332;DHT22;4203;48.144;14.118;2022-08-03T10:30:48;33.90;99.90
8332;DHT22;4203;48.144;14.118;2022-08-03T10:33:18;34.10;99.90
8332;DHT22;4203;48.144;14.118;2022-08-03T10:35:46;34.30;99.90
8332;DHT22;4203;48.144;14.118;2022-08-03T10:38:21;34.40;99.90
8332;DHT22;4203;48.144;14.118;2022-08-03T10:40:52;34.40;99.90
8332;DHT22;4203;48.144;14.118;2022-08-03T10:43:21;34.20;99.90
8332;DHT22;4203;48.144;14.118;2022-08-03T10:45:52;33.80;99.90
8332;DHT22;4203;48.144;14.118;2022-08-03T10:48:19;33.80;99.90
8332;DHT22;4203;48.144;14.118;2022-08-03T10:50:48;33.90;99.90
8332;DHT22;4203;48.144;14.118;2022-08-03T10:53:34;34.10;99.90
8332;DHT22;4203;48.144;14.118;2022-08-03T10:56:02;33.90;99.90
8332;DHT22;4203;48.144;14.118;2022-08-03T10:58:48;33.90;99.90
8332;DHT22;4203;48.144;14.118;2022-08-03T11:01:17;34.10;99.90
8332;DHT22;4203;48.144;14.118;2022-08-03T11:04:16;34.30;99.90
8332;DHT22;4203;48.144;14.118;2022-08-03T11:06:45;34.40;99.90
8332;DHT22;4203;48.144;14.118;2022-08-03T11:09:20;34.50;99.90
8332;DHT22;4203;48.144;14.118;2022-08-03T11:11:48;34.60;99.90
8332;DHT22;4203;48.144;14.118;2022-08-03T11:14:17;34.80;99.90
8332;DHT22;4203;48.144;14.118;2022-08-03T11:16:46;34.90;99.90
8332;DHT22;4203;48.144;14.118;2022-08-03T11:19:15;35.00;99.90
8332;DHT22;4203;48.144;14.118;2022-08-03T11:21:55;35.10;99.90
8332;DHT22;4203;48.144;14.118;2022-08-03T11:27:25;35.00;99.70
8332;DHT22;4203;48.144;14.118;2022-08-03T11:29:54;35.00;99.90
8332;DHT22;4203;48.144;14.118;2022-08-03T11:32:49;35.10;99.90
8332;DHT22;4203;48.144;14.118;2022-08-03T11:35:18;35.40;99.30
8332;DHT22;4203;48.144;14.118;2022-08-03T11:38:09;35.50;99.10
8332;DHT22;4203;48.144;14.118;2022-08-03T11:40:38;35.60;99.90
8332;DHT22;4203;48.144;14.118;2022-08-03T11:43:10;35.60;97.70
8332;DHT22;4203;48.144;14.118;2022-08-03T11:45:59;35.60;99.90
8332;DHT22;4203;48.144;14.118;2022-08-03T11:48:27;35.60;96.20
8332;DHT22;4203;48.144;14.118;2022-08-03T11:50:59;35.70;99.10
8332;DHT22;4203;48.144;14.118;2022-08-03T11:53:26;35.80;97.90
8332;DHT22;4203;48.144;14.118;2022-08-03T11:55:58;35.70;99.90
8332;DHT22;4203;48.144;14.118;2022-08-03T11:58:27;35.80;99.40
8332;DHT22;4203;48.144;14.118;2022-08-03T12:01:03;35.60;96.60
8332;DHT22;4203;48.144;14.118;2022-08-03T12:03:32;35.70;97.60
8332;DHT22;4203;48.144;14.118;2022-08-03T12:06:00;35.70;95.70
8332;DHT22;4203;48.144;14.118;2022-08-03T12:08:30;35.70;96.00
8332;DHT22;4203;48.144;14.118;2022-08-03T12:10:59;35.70;95.30
8332;DHT22;4203;48.144;14.118;2022-08-03T12:13:36;35.70;95.20
8332;DHT22;4203;48.144;14.118;2022-08-03T12:16:04;35.70;93.80
8332;DHT22;4203;48.144;14.118;2022-08-03T12:18:31;35.70;97.80
8332;DHT22;4203;48.144;14.118;2022-08-03T12:21:04;35.70;98.70
8332;DHT22;4203;48.144;14.118;2022-08-03T12:23:32;35.60;93.80
8332;DHT22;4203;48.144;14.118;2022-08-03T12:26:07;35.00;95.30
8332;DHT22;4203;48.144;14.118;2022-08-03T12:28:36;34.80;97.90
8332;DHT22;4203;48.144;14.118;2022-08-03T12:31:05;35.00;96.40
8332;DHT22;4203;48.144;14.118;2022-08-03T12:33:55;35.20;99.30
8332;DHT22;4203;48.144;14.118;2022-08-03T12:36:22;35.50;99.60
8332;DHT22;4203;48.144;14.118;2022-08-03T12:38:54;35.60;98.10
8332;DHT22;4203;48.144;14.118;2022-08-03T12:41:28;35.80;96.40
8332;DHT22;4203;48.144;14.118;2022-08-03T12:43:57;35.90;96.40
8332;DHT22;4203;48.144;14.118;2022-08-03T12:46:30;35.90;97.40
8332;DHT22;4203;48.144;14.118;2022-08-03T12:49:00;35.90;94.90
8332;DHT22;4203;48.144;14.118;2022-08-03T12:51:27;36.00;96.50
8332;DHT22;4203;48.144;14.118;2022-08-03T12:53:55;36.00;95.00
8332;DHT22;4203;48.144;14.118;2022-08-03T12:56:23;36.10;97.30
8332;DHT22;4203;48.144;14.118;2022-08-03T12:58:50;36.20;96.70
8332;DHT22;4203;48.144;14.118;2022-08-03T13:01:20;36.20;95.90
8332;DHT22;4203;48.144;14.118;2022-08-03T13:03:50;36.20;93.70
8332;DHT22;4203;48.144;14.118;2022-08-03T13:06:19;36.20;94.30
8332;DHT22;4203;48.144;14.118;2022-08-03T13:08:46;36.30;97.10
8332;DHT22;4203;48.144;14.118;2022-08-03T13:11:21;36.30;94.30
8332;DHT22;4203;48.144;14.118;2022-08-03T13:13:49;36.30;94.20
8332;DHT22;4203;48.144;14.118;2022-08-03T13:16:16;36.30;95.30
8332;DHT22;4203;48.144;14.118;2022-08-03T13:18:45;36.30;93.60
8332;DHT22;4203;48.144;14.118;2022-08-03T13:21:13;36.10;94.00
8332;DHT22;4203;48.144;14.118;2022-08-03T13:23:41;35.90;93.80
8332;DHT22;4203;48.144;14.118;2022-08-03T13:26:08;35.90;92.90
8332;DHT22;4203;48.144;14.118;2022-08-03T13:28:35;35.90;93.90
8332;DHT22;4203;48.144;14.118;2022-08-03T13:31:02;35.80;91.20
8332;DHT22;4203;48.144;14.118;2022-08-03T13:33:29;35.80;92.50
8332;DHT22;4203;48.144;14.118;2022-08-03T13:35:58;35.70;91.40
8332;DHT22;4203;48.144;14.118;2022-08-03T13:38:25;35.70;92.40
8332;DHT22;4203;48.144;14.118;2022-08-03T13:40:52;35.60;94.40
8332;DHT22;4203;48.144;14.118;2022-08-03T13:43:20;35.70;93.50
8332;DHT22;4203;48.144;14.118;2022-08-03T13:45:47;35.50;93.10
8332;DHT22;4203;48.144;14.118;2022-08-03T13:48:14;35.40;92.70
8332;DHT22;4203;48.144;14.118;2022-08-03T13:50:41;35.30;93.70
8332;DHT22;4203;48.144;14.118;2022-08-03T13:53:09;35.30;93.30
8332;DHT22;4203;48.144;14.118;2022-08-03T13:55:37;35.20;92.70
8332;DHT22;4203;48.144;14.118;2022-08-03T13:58:04;35.10;94.50
8332;DHT22;4203;48.144;14.118;2022-08-03T14:00:32;35.10;94.00
8332;DHT22;4203;48.144;14.118;2022-08-03T14:03:01;35.10;92.60
8332;DHT22;4203;48.144;14.118;2022-08-03T14:05:29;35.00;94.00
8332;DHT22;4203;48.144;14.118;2022-08-03T14:07:56;35.00;94.80
8332;DHT22;4203;48.144;14.118;2022-08-03T14:10:27;34.80;92.60
8332;DHT22;4203;48.144;14.118;2022-08-03T14:12:54;34.70;93.00
8332;DHT22;4203;48.144;14.118;2022-08-03T14:15:25;34.60;92.50
8332;DHT22;4203;48.144;14.118;2022-08-03T14:17:53;34.60;87.40
8332;DHT22;4203;48.144;14.118;2022-08-03T14:20:21;34.30;93.30
8332;DHT22;4203;48.144;14.118;2022-08-03T14:22:48;34.20;94.40
8332;DHT22;4203;48.144;14.118;2022-08-03T14:25:15;34.00;94.40
8332;DHT22;4203;48.144;14.118;2022-08-03T14:27:44;34.00;91.00
8332;DHT22;4203;48.144;14.118;2022-08-03T14:30:12;33.70;92.20
8332;DHT22;4203;48.144;14.118;2022-08-03T14:32:40;33.70;92.20
8332;DHT22;4203;48.144;14.118;2022-08-03T14:35:08;33.70;94.90
8332;DHT22;4203;48.144;14.118;2022-08-03T14:37:35;33.70;92.80
8332;DHT22;4203;48.144;14.118;2022-08-03T14:40:03;33.50;91.70
8332;DHT22;4203;48.144;14.118;2022-08-03T14:42:30;33.30;92.40
8332;DHT22;4203;48.144;14.118;2022-08-03T14:44:59;33.20;95.00
8332;DHT22;4203;48.144;14.118;2022-08-03T14:47:26;33.10;94.10
8332;DHT22;4203;48.144;14.118;2022-08-03T14:49:53;33.00;92.60
8332;DHT22;4203;48.144;14.118;2022-08-03T14:52:20;32.90;91.80
8332;DHT22;4203;48.144;14.118;2022-08-03T14:54:47;32.80;91.90
8332;DHT22;4203;48.144;14.118;2022-08-03T14:57:15;32.70;92.30
8332;DHT22;4203;48.144;14.118;2022-08-03T14:59:42;32.60;91.10
8332;DHT22;4203;48.144;14.118;2022-08-03T15:02:10;32.40;93.30
8332;DHT22;4203;48.144;14.118;2022-08-03T15:04:38;32.40;91.60
8332;DHT22;4203;48.144;14.118;2022-08-03T15:07:05;32.50;90.90
8332;DHT22;4203;48.144;14.118;2022-08-03T15:09:32;32.40;93.20
8332;DHT22;4203;48.144;14.118;2022-08-03T15:12:00;32.40;90.70
8332;DHT22;4203;48.144;14.118;2022-08-03T15:14:28;32.30;92.00
8332;DHT22;4203;48.144;14.118;2022-08-03T15:16:55;32.30;90.80
8332;DHT22;4203;48.144;14.118;2022-08-03T15:19:23;32.20;92.20
8332;DHT22;4203;48.144;14.118;2022-08-03T15:21:50;32.10;91.70
8332;DHT22;4203;48.144;14.118;2022-08-03T15:24:18;32.00;92.60
8332;DHT22;4203;48.144;14.118;2022-08-03T15:26:45;32.00;91.00
8332;DHT22;4203;48.144;14.118;2022-08-03T15:29:12;31.90;91.60
8332;DHT22;4203;48.144;14.118;2022-08-03T15:31:39;31.70;94.10
8332;DHT22;4203;48.144;14.118;2022-08-03T15:34:06;31.70;91.40
8332;DHT22;4203;48.144;14.118;2022-08-03T15:36:35;31.60;91.50
8332;DHT22;4203;48.144;14.118;2022-08-03T15:39:02;31.50;90.20
8332;DHT22;4203;48.144;14.118;2022-08-03T15:41:30;31.40;91.10
8332;DHT22;4203;48.144;14.118;2022-08-03T15:43:57;31.30;91.50
8332;DHT22;4203;48.144;14.118;2022-08-03T15:46:24;31.10;91.50
8332;DHT22;4203;48.144;14.118;2022-08-03T15:48:51;31.00;92.80
8332;DHT22;4203;48.144;14.118;2022-08-03T15:51:19;31.00;93.10
8332;DHT22;4203;48.144;14.118;2022-08-03T15:53:47;30.90;92.60
8332;DHT22;4203;48.144;14.118;2022-08-03T15:56:14;30.80;92.10
8332;DHT22;4203;48.144;14.118;2022-08-03T15:58:42;30.70;91.90
8332;DHT22;4203;48.144;14.118;2022-08-03T16:01:09;30.60;90.60